sensor_id;sensor_type;location;lat;lon;timestamp;pressure;altitude;pressure_sealevel;temperature;humidity
55289;BME280;41154;45.394;5.734;2022-09-27T00:02:04;96098.63;;;10.97;100.00
55289;BME280;41154;45.394;5.734;2022-09-27T00:04:29;96102.47;;;10.75;100.00
55289;BME280;41154;45.394;5.734;2022-09-27T00:06:55;96092.72;;;11.00;100.00
55289;BME280;41154;45.394;5.734;2022-09-27T00:09:21;96093.31;;;10.82;100.00
55289;BME280;41154;45.394;5.734;2022-09-27T00:11:46;96100.28;;;10.77;100.00
55289;BME280;41154;45.394;5.734;2022-09-27T00:14:13;96093.38;;;10.66;100.00
55289;BME280;41154;45.394;5.734;2022-09-27T00:16:41;96080.31;;;11.09;100.00
55289;BME280;41154;45.394;5.734;2022-09-27T00:19:11;96083.09;;;10.84;100.00
55289;BME280;41154;45.394;5.734;2022-09-27T00:21:38;96066.16;;;10.99;100.00
55289;BME280;41154;45.394;5.734;2022-09-27T00:24:04;96060.75;;;11.04;100.00
55289;BME280;41154;45.394;5.734;2022-09-27T00:26:30;96062.19;;;10.81;100.00
55289;BME280;41154;45.394;5.734;2022-09-27T00:28:56;96066.00;;;10.69;100.00
55289;BME280;41154;45.394;5.734;2022-09-27T00:31:25;96067.59;;;10.70;100.00
55289;BME280;41154;45.394;5.734;2022-09-27T00:33:57;96072.44;;;10.68;100.00
55289;BME280;41154;45.394;5.734;2022-09-27T00:36:25;96061.69;;;10.73;100.00
55289;BME280;41154;45.394;5.734;2022-09-27T00:38:53;96053.34;;;10.75;100.00
55289;BME280;41154;45.394;5.734;2022-09-27T00:43:49;96050.81;;;11.04;100.00
55289;BME280;41154;45.394;5.734;2022-09-27T00:46:43;96050.56;;;11.01;100.00
55289;BME280;41154;45.394;5.734;2022-09-27T00:51:44;96046.38;;;10.79;100.00
55289;BME280;41154;45.394;5.734;2022-09-27T00:54:14;96051.09;;;11.03;100.00
55289;BME280;41154;45.394;5.734;2022-09-27T00:56:42;96039.13;;;10.85;100.00
55289;BME280;41154;45.394;5.734;2022-09-27T00:59:24;96054.44;;;10.69;100.00
55289;BME280;41154;45.394;5.734;2022-09-27T01:01:51;96048.59;;;10.61;100.00
55289;BME280;41154;45.394;5.734;2022-09-27T01:04:21;96026.50;;;10.85;100.00
55289;BME280;41154;45.394;5.734;2022-09-27T01:06:49;96041.84;;;10.74;100.00
55289;BME280;41154;45.394;5.734;2022-09-27T01:09:16;96033.16;;;10.93;100.00
55289;BME280;41154;45.394;5.734;2022-09-27T01:11:53;96042.00;;;10.93;100.00
55289;BME280;41154;45.394;5.734;2022-09-27T01:14:39;96035.63;;;10.84;100.00
55289;BME280;41154;45.394;5.734;2022-09-27T01:17:25;96033.00;;;10.74;100.00
55289;BME280;41154;45.394;5.734;2022-09-27T01:20:22;96037.59;;;10.63;100.00
55289;BME280;41154;45.394;5.734;2022-09-27T01:25:54;96034.13;;;10.57;100.00
55289;BME280;41154;45.394;5.734;2022-09-27T01:34:05;96013.81;;;11.01;100.00
55289;BME280;41154;45.394;5.734;2022-09-27T01:45:34;95997.84;;;10.70;100.00
55289;BME280;41154;45.394;5.734;2022-09-27T01:48:19;95994.84;;;10.82;100.00
55289;BME280;41154;45.394;5.734;2022-09-27T01:51:04;95999.81;;;10.54;100.00
55289;BME280;41154;45.394;5.734;2022-09-27T01:53:51;95998.50;;;10.47;100.00
55289;BME280;41154;45.394;5.734;2022-09-27T01:56:49;96009.94;;;10.63;100.00
55289;BME280;41154;45.394;5.734;2022-09-27T01:59:43;96016.22;;;10.37;100.00
55289;BME280;41154;45.394;5.734;2022-09-27T02:02:41;96023.16;;;10.49;100.00
55289;BME280;41154;45.394;5.734;2022-09-27T02:05:32;96036.00;;;10.57;100.00
55289;BME280;41154;45.394;5.734;2022-09-27T02:08:35;96039.13;;;10.79;100.00
55289;BME280;41154;45.394;5.734;2022-09-27T02:11:12;96048.03;;;10.65;100.00
55289;BME280;41154;45.394;5.734;2022-09-27T02:14:14;96061.25;;;10.46;100.00
55289;BME280;41154;45.394;5.734;2022-09-27T02:24:55;96056.31;;;10.73;100.00
55289;BME280;41154;45.394;5.734;2022-09-27T02:27:26;96068.09;;;10.77;100.00
55289;BME280;41154;45.394;5.734;2022-09-27T02:29:59;96062.47;;;10.79;100.00
55289;BME280;41154;45.394;5.734;2022-09-27T02:32:26;96076.75;;;10.59;100.00
55289;BME280;41154;45.394;5.734;2022-09-27T02:34:53;96075.63;;;10.70;100.00
55289;BME280;41154;45.394;5.734;2022-09-27T02:37:22;96078.03;;;10.77;100.00
55289;BME280;41154;45.394;5.734;2022-09-27T02:39:48;96090.13;;;10.74;100.00
55289;BME280;41154;45.394;5.734;2022-09-27T02:42:14;96082.03;;;10.85;100.00
55289;BME280;41154;45.394;5.734;2022-09-27T02:44:41;96082.84;;;10.85;100.00
55289;BME280;41154;45.394;5.734;2022-09-27T02:47:26;96082.00;;;10.90;100.00
55289;BME280;41154;45.394;5.734;2022-09-27T03:04:41;96097.38;;;10.74;100.00
55289;BME280;41154;45.394;5.734;2022-09-27T03:07:11;96095.72;;;10.78;100.00
55289;BME280;41154;45.394;5.734;2022-09-27T03:09:44;96109.69;;;10.80;100.00
55289;BME280;41154;45.394;5.734;2022-09-27T03:12:11;96102.19;;;10.77;100.00
55289;BME280;41154;45.394;5.734;2022-09-27T03:14:37;96109.44;;;10.71;100.00
55289;BME280;41154;45.394;5.734;2022-09-27T03:17:19;96108.09;;;10.69;100.00
55289;BME280;41154;45.394;5.734;2022-09-27T03:20:04;96099.00;;;10.65;100.00
55289;BME280;41154;45.394;5.734;2022-09-27T03:22:50;96121.25;;;10.65;100.00
55289;BME280;41154;45.394;5.734;2022-09-27T03:25:16;96116.94;;;10.64;100.00
55289;BME280;41154;45.394;5.734;2022-09-27T03:27:42;96111.59;;;10.64;100.00
55289;BME280;41154;45.394;5.734;2022-09-27T03:30:09;96112.94;;;10.67;100.00
55289;BME280;41154;45.394;5.734;2022-09-27T03:32:35;96119.66;;;10.59;100.00
55289;BME280;41154;45.394;5.734;2022-09-27T03:35:24;96110.00;;;10.63;100.00
55289;BME280;41154;45.394;5.734;2022-09-27T03:37:50;96107.31;;;10.63;100.00
55289;BME280;41154;45.394;5.734;2022-09-27T03:40:16;96101.94;;;10.58;100.00
55289;BME280;41154;45.394;5.734;2022-09-27T03:42:42;96102.78;;;10.58;100.00
55289;BME280;41154;45.394;5.734;2022-09-27T03:45:08;96107.31;;;10.58;100.00
55289;BME280;41154;45.394;5.734;2022-09-27T03:47:39;96105.16;;;10.55;100.00
55289;BME280;41154;45.394;5.734;2022-09-27T03:50:07;96104.41;;;10.49;100.00
55289;BME280;41154;45.394;5.734;2022-09-27T03:52:33;96110.56;;;10.50;100.00
55289;BME280;41154;45.394;5.734;2022-09-27T03:54:59;96107.06;;;10.54;100.00
55289;BME280;41154;45.394;5.734;2022-09-27T03:57:25;96102.78;;;10.58;100.00
55289;BME280;41154;45.394;5.734;2022-09-27T03:59:51;96107.03;;;10.59;100.00
55289;BME280;41154;45.394;5.734;2022-09-27T04:02:35;96096.59;;;10.53;100.00
55289;BME280;41154;45.394;5.734;2022-09-27T04:05:20;96100.91;;;10.43;100.00
55289;BME280;41154;45.394;5.734;2022-09-27T04:07:46;96099.28;;;10.53;100.00
55289;BME280;41154;45.394;5.734;2022-09-27T04:10:14;96105.22;;;10.39;100.00
55289;BME280;41154;45.394;5.734;2022-09-27T04:12:40;96102.78;;;10.53;100.00
55289;BME280;41154;45.394;5.734;2022-09-27T04:15:08;96107.63;;;10.46;100.00
55289;BME280;41154;45.394;5.734;2022-09-27T04:17:49;96110.84;;;10.43;100.00
55289;BME280;41154;45.394;5.734;2022-09-27T04:20:34;96113.28;;;10.39;100.00
55289;BME280;41154;45.394;5.734;2022-09-27T04:23:06;96117.53;;;10.40;100.00
55289;BME280;41154;45.394;5.734;2022-09-27T04:25:35;96125.06;;;10.38;100.00
55289;BME280;41154;45.394;5.734;2022-09-27T04:28:08;96122.63;;;10.42;100.00
55289;BME280;41154;45.394;5.734;2022-09-27T04:30:33;96128.81;;;10.42;100.00
55289;BME280;41154;45.394;5.734;2022-09-27T04:33:11;96127.47;;;10.50;100.00
55289;BME280;41154;45.394;5.734;2022-09-27T04:35:56;96123.97;;;10.50;100.00
55289;BME280;41154;45.394;5.734;2022-09-27T04:38:58;96138.47;;;10.49;100.00
55289;BME280;41154;45.394;5.734;2022-09-27T04:41:26;96142.75;;;10.39;100.00
55289;BME280;41154;45.394;5.734;2022-09-27T04:43:56;96143.81;;;10.38;100.00
55289;BME280;41154;45.394;5.734;2022-09-27T04:46:22;96143.56;;;10.35;100.00
55289;BME280;41154;45.394;5.734;2022-09-27T04:48:49;96146.50;;;10.33;100.00
55289;BME280;41154;45.394;5.734;2022-09-27T04:51:16;96153.44;;;10.29;100.00
55289;BME280;41154;45.394;5.734;2022-09-27T04:53:43;96157.75;;;10.30;100.00
55289;BME280;41154;45.394;5.734;2022-09-27T04:56:11;96155.09;;;10.35;100.00
55289;BME280;41154;45.394;5.734;2022-09-27T04:58:37;96154.56;;;10.33;100.00
55289;BME280;41154;45.394;5.734;2022-09-27T05:01:03;96157.75;;;10.35;100.00
55289;BME280;41154;45.394;5.734;2022-09-27T05:03:52;96163.63;;;10.32;100.00
55289;BME280;41154;45.394;5.734;2022-09-27T05:06:18;96159.91;;;10.38;100.00
55289;BME280;41154;45.394;5.734;2022-09-27T05:08:44;96156.69;;;10.36;100.00
55289;BME280;41154;45.394;5.734;2022-09-27T05:11:24;96162.59;;;10.38;100.00
55289;BME280;41154;45.394;5.734;2022-09-27T05:14:09;96162.06;;;10.52;100.00
55289;BME280;41154;45.394;5.734;2022-09-27T05:16:48;96157.50;;;10.47;100.00
55289;BME280;41154;45.394;5.734;2022-09-27T05:19:34;96159.38;;;10.41;100.00
55289;BME280;41154;45.394;5.734;2022-09-27T05:22:16;96158.56;;;10.36;100.00
55289;BME280;41154;45.394;5.734;2022-09-27T05:24:42;96153.75;;;10.38;100.00
55289;BME280;41154;45.394;5.734;2022-09-27T05:27:13;96157.75;;;10.35;100.00
55289;BME280;41154;45.394;5.734;2022-09-27T05:29:43;96152.38;;;10.25;100.00
55289;BME280;41154;45.394;5.734;2022-09-27T05:32:20;96147.28;;;10.23;100.00
55289;BME280;41154;45.394;5.734;2022-09-27T05:34:52;96163.63;;;10.12;100.00
55289;BME280;41154;45.394;5.734;2022-09-27T05:37:19;96158.53;;;10.15;100.00
55289;BME280;41154;45.394;5.734;2022-09-27T05:39:46;96162.00;;;10.16;100.00
55289;BME280;41154;45.394;5.734;2022-09-27T05:42:12;96166.31;;;10.17;100.00
55289;BME280;41154;45.394;5.734;2022-09-27T05:44:40;96163.38;;;10.18;100.00
55289;BME280;41154;45.394;5.734;2022-09-27T05:47:07;96161.75;;;10.28;100.00
55289;BME280;41154;45.394;5.734;2022-09-27T05:49:33;96156.97;;;10.35;100.00
55289;BME280;41154;45.394;5.734;2022-09-27T05:52:00;96169.53;;;10.34;100.00
55289;BME280;41154;45.394;5.734;2022-09-27T05:54:27;96166.06;;;10.49;100.00
55289;BME280;41154;45.394;5.734;2022-09-27T05:56:56;96171.16;;;10.40;100.00
55289;BME280;41154;45.394;5.734;2022-09-27T05:59:45;96171.16;;;10.40;100.00
55289;BME280;41154;45.394;5.734;2022-09-27T06:02:21;96171.69;;;10.53;100.00
55289;BME280;41154;45.394;5.734;2022-09-27T06:05:05;96159.91;;;10.43;100.00
55289;BME280;41154;45.394;5.734;2022-09-27T06:07:51;96166.06;;;10.49;100.00
55289;BME280;41154;45.394;5.734;2022-09-27T06:10:28;96171.94;;;10.51;100.00
55289;BME280;41154;45.394;5.734;2022-09-27T06:13:04;96169.00;;;10.58;100.00
55289;BME280;41154;45.394;5.734;2022-09-27T06:15:34;96164.72;;;10.57;100.00
55289;BME280;41154;45.394;5.734;2022-09-27T06:18:14;96169.53;;;10.60;100.00
55289;BME280;41154;45.394;5.734;2022-09-27T06:20:44;96166.84;;;10.65;100.00
55289;BME280;41154;45.394;5.734;2022-09-27T06:23:16;96176.72;;;10.90;100.00
55289;BME280;41154;45.394;5.734;2022-09-27T06:25:48;96179.44;;;10.70;100.00
55289;BME280;41154;45.394;5.734;2022-09-27T06:28:20;96180.25;;;10.50;100.00
55289;BME280;41154;45.394;5.734;2022-09-27T06:30:51;96186.97;;;10.42;100.00
55289;BME280;41154;45.394;5.734;2022-09-27T06:33:52;96192.06;;;10.38;100.00
55289;BME280;41154;45.394;5.734;2022-09-27T06:36:18;96185.09;;;10.48;100.00
55289;BME280;41154;45.394;5.734;2022-09-27T06:38:45;96189.38;;;10.54;100.00
55289;BME280;41154;45.394;5.734;2022-09-27T06:41:18;96197.16;;;10.71;100.00
55289;BME280;41154;45.394;5.734;2022-09-27T06:44:04;96187.22;;;10.71;100.00
55289;BME280;41154;45.394;5.734;2022-09-27T06:46:52;96187.22;;;10.71;100.00
55289;BME280;41154;45.394;5.734;2022-09-27T06:49:42;96189.06;;;10.81;100.00
55289;BME280;41154;45.394;5.734;2022-09-27T06:52:08;96180.19;;;11.01;100.00
55289;BME280;41154;45.394;5.734;2022-09-27T06:54:33;96177.78;;;10.94;100.00
55289;BME280;41154;45.394;5.734;2022-09-27T06:56:59;96182.09;;;10.75;100.00
55289;BME280;41154;45.394;5.734;2022-09-27T06:59:25;96185.59;;;10.81;100.00
55289;BME280;41154;45.394;5.734;2022-09-27T07:02:28;96188.84;;;10.72;100.00
55289;BME280;41154;45.394;5.734;2022-09-27T07:05:07;96191.50;;;10.77;100.00
55289;BME280;41154;45.394;5.734;2022-09-27T07:07:45;96191.19;;;10.94;100.00
55289;BME280;41154;45.394;5.734;2022-09-27T07:10:13;96189.78;;;11.18;100.00
55289;BME280;41154;45.394;5.734;2022-09-27T07:12:39;96195.66;;;11.25;100.00
55289;BME280;41154;45.394;5.734;2022-09-27T07:15:06;96200.88;;;11.66;100.00
55289;BME280;41154;45.394;5.734;2022-09-27T07:17:31;96196.00;;;11.73;100.00
55289;BME280;41154;45.394;5.734;2022-09-27T07:19:57;96193.53;;;11.27;100.00
55289;BME280;41154;45.394;5.734;2022-09-27T07:22:23;96213.31;;;11.46;100.00
55289;BME280;41154;45.394;5.734;2022-09-27T07:24:57;96207.72;;;11.32;100.00
55289;BME280;41154;45.394;5.734;2022-09-27T07:27:24;96203.75;;;11.20;100.00
55289;BME280;41154;45.394;5.734;2022-09-27T07:29:51;96201.91;;;11.05;100.00
55289;BME280;41154;45.394;5.734;2022-09-27T07:32:17;96205.34;;;11.21;100.00
55289;BME280;41154;45.394;5.734;2022-09-27T07:34:43;96199.94;;;11.31;100.00
55289;BME280;41154;45.394;5.734;2022-09-27T07:37:10;96194.28;;;11.38;100.00
55289;BME280;41154;45.394;5.734;2022-09-27T07:39:38;96209.63;;;11.27;100.00
55289;BME280;41154;45.394;5.734;2022-09-27T07:42:04;96201.78;;;11.46;100.00
55289;BME280;41154;45.394;5.734;2022-09-27T07:44:31;96206.53;;;11.64;100.00
55289;BME280;41154;45.394;5.734;2022-09-27T07:47:21;96217.50;;;11.68;100.00
55289;BME280;41154;45.394;5.734;2022-09-27T07:50:09;96217.63;;;12.02;100.00
55289;BME280;41154;45.394;5.734;2022-09-27T07:52:49;96219.88;;;12.25;100.00
55289;BME280;41154;45.394;5.734;2022-09-27T07:55:32;96226.94;;;12.20;100.00
55289;BME280;41154;45.394;5.734;2022-09-27T07:58:19;96232.16;;;12.01;100.00
55289;BME280;41154;45.394;5.734;2022-09-27T08:00:46;96232.59;;;12.14;100.00
55289;BME280;41154;45.394;5.734;2022-09-27T08:03:15;96235.28;;;12.19;100.00
55289;BME280;41154;45.394;5.734;2022-09-27T08:05:44;96236.84;;;12.20;100.00
55289;BME280;41154;45.394;5.734;2022-09-27T08:08:10;96233.50;;;12.38;100.00
55289;BME280;41154;45.394;5.734;2022-09-27T08:10:35;96228.44;;;12.32;100.00
55289;BME280;41154;45.394;5.734;2022-09-27T08:13:03;96239.88;;;12.13;100.00
55289;BME280;41154;45.394;5.734;2022-09-27T08:15:33;96232.88;;;12.12;100.00
55289;BME280;41154;45.394;5.734;2022-09-27T08:18:05;96232.34;;;12.10;100.00
55289;BME280;41154;45.394;5.734;2022-09-27T08:20:50;96235.28;;;12.14;100.00
55289;BME280;41154;45.394;5.734;2022-09-27T08:23:55;96241.38;;;12.30;100.00
55289;BME280;41154;45.394;5.734;2022-09-27T08:26:30;96228.66;;;12.40;100.00
55289;BME280;41154;45.394;5.734;2022-09-27T08:29:05;96233.66;;;12.57;100.00
55289;BME280;41154;45.394;5.734;2022-09-27T08:31:36;96235.22;;;12.64;100.00
55289;BME280;41154;45.394;5.734;2022-09-27T08:34:02;96243.25;;;12.69;100.00
55289;BME280;41154;45.394;5.734;2022-09-27T08:36:28;96235.88;;;12.80;100.00
55289;BME280;41154;45.394;5.734;2022-09-27T08:38:56;96236.81;;;12.65;100.00
55289;BME280;41154;45.394;5.734;2022-09-27T08:41:28;96234.00;;;12.46;100.00
55289;BME280;41154;45.394;5.734;2022-09-27T08:44:03;96235.56;;;12.12;100.00
55289;BME280;41154;45.394;5.734;2022-09-27T08:47:01;96234.44;;;12.18;100.00
55289;BME280;41154;45.394;5.734;2022-09-27T08:49:32;96236.44;;;12.02;100.00
55289;BME280;41154;45.394;5.734;2022-09-27T08:52:04;96228.94;;;11.99;100.00
55289;BME280;41154;45.394;5.734;2022-09-27T08:54:32;96230.09;;;11.78;100.00
55289;BME280;41154;45.394;5.734;2022-09-27T08:57:03;96237.06;;;11.79;100.00
55289;BME280;41154;45.394;5.734;2022-09-27T08:59:36;96234.88;;;11.91;100.00
55289;BME280;41154;45.394;5.734;2022-09-27T09:02:05;96234.03;;;12.01;100.00
55289;BME280;41154;45.394;5.734;2022-09-27T09:04:42;96241.53;;;12.04;100.00
55289;BME280;41154;45.394;5.734;2022-09-27T09:07:34;96245.56;;;12.07;100.00
55289;BME280;41154;45.394;5.734;2022-09-27T09:10:26;96243.28;;;12.24;100.00
55289;BME280;41154;45.394;5.734;2022-09-27T09:35:03;96250.00;;;14.87;100.00
55289;BME280;41154;45.394;5.734;2022-09-27T09:37:38;96250.31;;;15.00;100.00
55289;BME280;41154;45.394;5.734;2022-09-27T09:42:54;96250.91;;;14.45;100.00
55289;BME280;41154;45.394;5.734;2022-09-27T09:45:21;96252.16;;;13.95;100.00
55289;BME280;41154;45.394;5.734;2022-09-27T09:48:10;96242.34;;;13.32;100.00
55289;BME280;41154;45.394;5.734;2022-09-27T09:50:52;96249.09;;;13.35;100.00
55289;BME280;41154;45.394;5.734;2022-09-27T09:53:44;96259.00;;;12.46;100.00
55289;BME280;41154;45.394;5.734;2022-09-27T09:56:30;96260.22;;;12.25;100.00
55289;BME280;41154;45.394;5.734;2022-09-27T09:59:01;96260.97;;;12.35;100.00
55289;BME280;41154;45.394;5.734;2022-09-27T10:01:43;96266.06;;;12.37;100.00
55289;BME280;41154;45.394;5.734;2022-09-27T10:04:22;96270.22;;;12.58;100.00
55289;BME280;41154;45.394;5.734;2022-09-27T10:06:51;96278.16;;;12.74;100.00
55289;BME280;41154;45.394;5.734;2022-09-27T10:09:22;96275.72;;;13.07;100.00
55289;BME280;41154;45.394;5.734;2022-09-27T10:12:11;96273.97;;;12.63;100.00
55289;BME280;41154;45.394;5.734;2022-09-27T10:14:39;96283.75;;;12.83;100.00
55289;BME280;41154;45.394;5.734;2022-09-27T10:17:10;96283.66;;;12.64;100.00
55289;BME280;41154;45.394;5.734;2022-09-27T10:19:40;96288.56;;;12.51;100.00
55289;BME280;41154;45.394;5.734;2022-09-27T10:22:21;96298.38;;;12.32;100.00
55289;BME280;41154;45.394;5.734;2022-09-27T10:24:55;96293.50;;;12.39;100.00
55289;BME280;41154;45.394;5.734;2022-09-27T10:27:47;96290.22;;;12.47;100.00
55289;BME280;41154;45.394;5.734;2022-09-27T10:33:05;96292.00;;;12.91;100.00
55289;BME280;41154;45.394;5.734;2022-09-27T10:35:45;96296.09;;;12.54;100.00
55289;BME280;41154;45.394;5.734;2022-09-27T10:38:28;96292.47;;;12.69;100.00
55289;BME280;41154;45.394;5.734;2022-09-27T10:41:36;96298.91;;;13.32;100.00
55289;BME280;41154;45.394;5.734;2022-09-27T10:46:46;96290.75;;;13.13;100.00
55289;BME280;41154;45.394;5.734;2022-09-27T10:49:37;96295.94;;;13.39;100.00
55289;BME280;41154;45.394;5.734;2022-09-27T10:52:22;96287.28;;;13.66;100.00
55289;BME280;41154;45.394;5.734;2022-09-27T10:55:22;96298.06;;;13.42;100.00
55289;BME280;41154;45.394;5.734;2022-09-27T10:57:52;96297.81;;;13.09;100.00
55289;BME280;41154;45.394;5.734;2022-09-27T11:00:24;96300.81;;;13.31;100.00
55289;BME280;41154;45.394;5.734;2022-09-27T11:02:55;96302.88;;;13.45;100.00
55289;BME280;41154;45.394;5.734;2022-09-27T11:08:31;96304.16;;;13.96;100.00
55289;BME280;41154;45.394;5.734;2022-09-27T11:11:27;96296.06;;;14.20;100.00
55289;BME280;41154;45.394;5.734;2022-09-27T11:14:00;96302.63;;;13.41;100.00
55289;BME280;41154;45.394;5.734;2022-09-27T11:22:18;96300.66;;;13.18;100.00
55289;BME280;41154;45.394;5.734;2022-09-27T11:25:19;96297.28;;;13.07;100.00
55289;BME280;41154;45.394;5.734;2022-09-27T11:28:07;96301.53;;;12.79;100.00
55289;BME280;41154;45.394;5.734;2022-09-27T11:31:00;96295.75;;;12.61;100.00
55289;BME280;41154;45.394;5.734;2022-09-27T11:37:07;96293.91;;;12.56;100.00
55289;BME280;41154;45.394;5.734;2022-09-27T11:39:24;96291.13;;;12.72;100.00
55289;BME280;41154;45.394;5.734;2022-09-27T11:53:32;96287.56;;;13.64;100.00
55289;BME280;41154;45.394;5.734;2022-09-27T11:59:04;96278.25;;;14.57;100.00
55289;BME280;41154;45.394;5.734;2022-09-27T12:09:33;96286.06;;;14.78;100.00
55289;BME280;41154;45.394;5.734;2022-09-27T12:12:12;96287.72;;;14.54;100.00
55289;BME280;41154;45.394;5.734;2022-09-27T12:14:47;96295.16;;;14.06;100.00
55289;BME280;41154;45.394;5.734;2022-09-27T12:17:22;96285.34;;;14.34;100.00
55289;BME280;41154;45.394;5.734;2022-09-27T12:19:53;96289.47;;;13.64;100.00
55289;BME280;41154;45.394;5.734;2022-09-27T12:22:33;96282.31;;;13.54;100.00
55289;BME280;41154;45.394;5.734;2022-09-27T12:25:00;96285.00;;;13.25;100.00
55289;BME280;41154;45.394;5.734;2022-09-27T12:27:53;96293.88;;;13.25;100.00
55289;BME280;41154;45.394;5.734;2022-09-27T12:30:21;96286.28;;;13.03;100.00
55289;BME280;41154;45.394;5.734;2022-09-27T12:33:09;96284.84;;;12.82;100.00
55289;BME280;41154;45.394;5.734;2022-09-27T12:35:51;96285.97;;;12.75;100.00
55289;BME280;41154;45.394;5.734;2022-09-27T12:38:22;96287.31;;;12.73;100.00
55289;BME280;41154;45.394;5.734;2022-09-27T12:40:52;96293.88;;;12.96;100.00
55289;BME280;41154;45.394;5.734;2022-09-27T12:43:29;96295.44;;;13.02;100.00
55289;BME280;41154;45.394;5.734;2022-09-27T12:46:27;96297.38;;;12.62;100.00
55289;BME280;41154;45.394;5.734;2022-09-27T13:10:13;96338.59;;;11.97;100.00
55289;BME280;41154;45.394;5.734;2022-09-27T13:12:48;96339.44;;;11.93;100.00
55289;BME280;41154;45.394;5.734;2022-09-27T13:15:34;96338.09;;;11.95;100.00
55289;BME280;41154;45.394;5.734;2022-09-27T13:18:03;96331.63;;;11.91;100.00
55289;BME280;41154;45.394;5.734;2022-09-27T13:20:41;96317.91;;;12.03;100.00
55289;BME280;41154;45.394;5.734;2022-09-27T13:26:41;96296.94;;;12.50;100.00
55289;BME280;41154;45.394;5.734;2022-09-27T13:29:26;96284.69;;;12.68;100.00
55289;BME280;41154;45.394;5.734;2022-09-27T13:34:50;96273.06;;;13.36;100.00
55289;BME280;41154;45.394;5.734;2022-09-27T13:37:44;96265.88;;;13.21;100.00
55289;BME280;41154;45.394;5.734;2022-09-27T13:40:32;96259.47;;;13.71;100.00
55289;BME280;41154;45.394;5.734;2022-09-27T13:46:01;96241.38;;;14.14;100.00
55289;BME280;41154;45.394;5.734;2022-09-27T13:48:53;96227.69;;;13.68;100.00
55289;BME280;41154;45.394;5.734;2022-09-27T13:51:45;96233.72;;;13.35;100.00
55289;BME280;41154;45.394;5.734;2022-09-27T13:54:48;96242.91;;;13.34;100.00
55289;BME280;41154;45.394;5.734;2022-09-27T14:00:19;96252.13;;;13.23;100.00
55289;BME280;41154;45.394;5.734;2022-09-27T14:05:37;96249.44;;;13.52;100.00
55289;BME280;41154;45.394;5.734;2022-09-27T14:08:16;96248.59;;;13.76;100.00
55289;BME280;41154;45.394;5.734;2022-09-27T14:10:43;96248.28;;;13.58;100.00
55289;BME280;41154;45.394;5.734;2022-09-27T14:13:10;96247.84;;;13.51;100.00
55289;BME280;41154;45.394;5.734;2022-09-27T14:15:47;96244.38;;;13.70;100.00
55289;BME280;41154;45.394;5.734;2022-09-27T14:18:14;96247.72;;;13.61;100.00
55289;BME280;41154;45.394;5.734;2022-09-27T14:20:43;96257.44;;;13.81;100.00
55289;BME280;41154;45.394;5.734;2022-09-27T14:23:25;96257.13;;;13.64;100.00
55289;BME280;41154;45.394;5.734;2022-09-27T14:25:52;96261.25;;;13.56;100.00
55289;BME280;41154;45.394;5.734;2022-09-27T14:28:23;96251.00;;;13.77;100.00
55289;BME280;41154;45.394;5.734;2022-09-27T14:31:16;96251.25;;;13.81;100.00
55289;BME280;41154;45.394;5.734;2022-09-27T14:34:06;96247.34;;;13.92;100.00
55289;BME280;41154;45.394;5.734;2022-09-27T14:36:38;96251.00;;;13.77;100.00
55289;BME280;41154;45.394;5.734;2022-09-27T14:39:31;96249.00;;;13.88;100.00
55289;BME280;41154;45.394;5.734;2022-09-27T14:42:04;96251.06;;;13.96;100.00
55289;BME280;41154;45.394;5.734;2022-09-27T14:44:43;96252.41;;;13.75;100.00
55289;BME280;41154;45.394;5.734;2022-09-27T14:47:27;96252.91;;;13.77;100.00
55289;BME280;41154;45.394;5.734;2022-09-27T14:50:11;96244.84;;;13.77;100.00
55289;BME280;41154;45.394;5.734;2022-09-27T14:52:38;96248.44;;;14.10;100.00
55289;BME280;41154;45.394;5.734;2022-09-27T14:55:16;96253.22;;;13.94;100.00
55289;BME280;41154;45.394;5.734;2022-09-27T14:57:54;96245.47;;;14.31;100.00
55289;BME280;41154;45.394;5.734;2022-09-27T15:00:24;96252.91;;;14.01;100.00
55289;BME280;41154;45.394;5.734;2022-09-27T15:02:53;96249.31;;;14.25;100.00
55289;BME280;41154;45.394;5.734;2022-09-27T15:05:22;96254.44;;;14.07;100.00
55289;BME280;41154;45.394;5.734;2022-09-27T15:07:49;96243.47;;;13.79;100.00
55289;BME280;41154;45.394;5.734;2022-09-27T15:10:21;96245.41;;;13.74;100.00
55289;BME280;41154;45.394;5.734;2022-09-27T15:12:49;96247.44;;;13.82;100.00
55289;BME280;41154;45.394;5.734;2022-09-27T15:15:19;96240.75;;;13.79;100.00
55289;BME280;41154;45.394;5.734;2022-09-27T15:17:46;96241.75;;;13.64;100.00
55289;BME280;41154;45.394;5.734;2022-09-27T15:22:55;96245.16;;;13.51;100.00
55289;BME280;41154;45.394;5.734;2022-09-27T15:25:33;96245.47;;;13.44;100.00
55289;BME280;41154;45.394;5.734;2022-09-27T15:28:16;96245.19;;;13.46;100.00
55289;BME280;41154;45.394;5.734;2022-09-27T15:31:09;96245.84;;;13.38;100.00
55289;BME280;41154;45.394;5.734;2022-09-27T15:33:36;96249.88;;;13.35;100.00
55289;BME280;41154;45.394;5.734;2022-09-27T15:36:04;96259.63;;;13.31;100.00
55289;BME280;41154;45.394;5.734;2022-09-27T15:41:14;96264.53;;;13.24;100.00
55289;BME280;41154;45.394;5.734;2022-09-27T15:43:45;96270.19;;;13.22;100.00
55289;BME280;41154;45.394;5.734;2022-09-27T15:52:39;96266.84;;;13.06;100.00
55289;BME280;41154;45.394;5.734;2022-09-27T15:55:11;96262.69;;;13.19;100.00
55289;BME280;41154;45.394;5.734;2022-09-27T15:57:38;96260.09;;;13.38;100.00
55289;BME280;41154;45.394;5.734;2022-09-27T16:00:05;96255.13;;;13.21;100.00
55289;BME280;41154;45.394;5.734;2022-09-27T16:02:37;96264.88;;;13.17;100.00
55289;BME280;41154;45.394;5.734;2022-09-27T16:05:03;96262.41;;;13.21;100.00
55289;BME280;41154;45.394;5.734;2022-09-27T16:07:29;96272.38;;;12.91;100.00
55289;BME280;41154;45.394;5.734;2022-09-27T16:09:54;96278.81;;;12.95;100.00